createdAt,value
2023-01-19T00:00:40.499Z,97.10
2023-01-19T00:03:27.612Z,98.85
2023-01-19T00:06:08.609Z,103.50
2023-01-19T00:08:36.035Z,92.60
2023-01-19T00:11:03.044Z,96.38
2023-01-19T00:13:56.550Z,85.30
2023-01-19T00:16:57.553Z,100.05
2023-01-19T00:19:38.141Z,93.38
2023-01-19T00:22:06.090Z,93.65
2023-01-19T00:24:53.552Z,91.75
2023-01-19T00:27:35.086Z,89.95
2023-01-19T00:30:02.353Z,99.43
2023-01-19T00:32:29.319Z,90.13
2023-01-19T00:34:56.229Z,89.95
2023-01-19T00:37:43.574Z,89.07
2023-01-19T00:40:24.200Z,85.68
2023-01-19T00:42:51.064Z,81.95
2023-01-19T00:45:20.414Z,85.00
2023-01-19T00:47:49.232Z,86.80
2023-01-19T00:50:17.292Z,73.45
2023-01-19T00:52:59.861Z,85.72
2023-01-19T00:56:00.228Z,80.50
2023-01-19T00:58:27.133Z,77.35
2023-01-19T01:00:54.846Z,82.68
2023-01-19T01:03:28.259Z,87.25
2023-01-19T01:05:55.347Z,85.50
2023-01-19T01:08:22.240Z,74.25
2023-01-19T01:10:50.714Z,74.50
2023-01-19T01:13:37.584Z,75.15
2023-01-19T01:16:38.638Z,75.90
2023-01-19T01:19:19.556Z,82.63
2023-01-19T01:21:46.592Z,81.00
2023-01-19T01:24:13.632Z,80.28
2023-01-19T01:27:00.575Z,80.40
2023-01-19T01:29:46.463Z,86.85
2023-01-19T01:32:16.792Z,77.95
2023-01-19T01:34:44.091Z,86.30
2023-01-19T01:37:11.507Z,84.40
2023-01-19T01:39:38.326Z,72.50
2023-01-19T01:42:17.002Z,85.80
2023-01-19T01:44:51.473Z,78.63
2023-01-19T01:47:41.733Z,79.63
2023-01-19T01:50:15.044Z,72.85
2023-01-19T01:53:06.554Z,65.50
2023-01-19T01:55:49.337Z,74.18
2023-01-19T01:58:36.589Z,64.07
2023-01-19T02:01:35.926Z,61.80
2023-01-19T02:04:03.084Z,67.75
2023-01-19T02:06:30.216Z,65.97
2023-01-19T02:09:29.940Z,66.88
2023-01-19T02:12:34.612Z,70.95
2023-01-19T02:15:35.607Z,71.38
2023-01-19T02:18:16.549Z,82.28
2023-01-19T02:20:52.945Z,86.38
2023-01-19T02:23:36.008Z,92.13
2023-01-19T02:26:04.130Z,84.43
2023-01-19T02:28:31.587Z,71.78
2023-01-19T02:31:19.613Z,75.95
2023-01-19T02:34:24.582Z,65.90
2023-01-19T02:40:15.733Z,72.30
2023-01-19T02:42:46.968Z,58.58
2023-01-19T02:45:18.238Z,75.32
2023-01-19T02:47:49.416Z,64.00
2023-01-19T02:50:35.155Z,68.85
2023-01-19T02:53:32.522Z,64.30
2023-01-19T02:56:07.238Z,67.40
2023-01-19T02:58:46.838Z,65.93
2023-01-19T03:01:26.808Z,63.33
2023-01-19T03:04:07.008Z,68.43
2023-01-19T03:06:43.105Z,61.85
2023-01-19T03:09:21.957Z,52.55
2023-01-19T03:12:33.629Z,58.80
2023-01-19T03:15:45.682Z,46.33
2023-01-19T03:18:29.005Z,42.75
2023-01-19T03:20:59.895Z,37.85
2023-01-19T03:23:31.652Z,41.35
2023-01-19T03:26:01.085Z,42.42
2023-01-19T03:28:30.447Z,34.10
2023-01-19T03:31:15.480Z,43.22
2023-01-19T03:33:47.546Z,40.28
2023-01-19T03:36:27.666Z,47.10
2023-01-19T03:38:57.390Z,37.33
2023-01-19T03:41:26.585Z,45.67
2023-01-19T03:43:55.589Z,40.72
2023-01-19T03:46:24.902Z,38.70
2023-01-19T03:48:52.240Z,37.28
2023-01-19T03:51:19.641Z,41.85
2023-01-19T03:54:07.682Z,40.22
2023-01-19T03:57:08.647Z,44.50
2023-01-19T03:59:49.602Z,40.75
2023-01-19T04:02:37.659Z,34.40
2023-01-19T04:05:19.245Z,43.50
2023-01-19T04:07:49.007Z,34.85
2023-01-19T04:10:19.832Z,39.58
2023-01-19T04:13:11.668Z,42.60
2023-01-19T04:16:16.757Z,39.38
2023-01-19T04:21:24.263Z,38.47
2023-01-19T04:23:53.249Z,40.75
2023-01-19T04:26:20.673Z,36.53
2023-01-19T04:28:47.665Z,35.67
2023-01-19T04:31:14.838Z,45.38
2023-01-19T04:33:41.747Z,46.83
2023-01-19T04:36:08.812Z,36.75
2023-01-19T04:38:36.094Z,37.97
2023-01-19T04:41:03.078Z,40.33
2023-01-19T04:43:30.083Z,39.65
2023-01-19T04:45:57.021Z,43.08
2023-01-19T04:48:24.132Z,43.85
2023-01-19T04:50:52.567Z,47.42
2023-01-19T04:53:19.805Z,40.80
2023-01-19T04:56:07.654Z,46.13
2023-01-19T04:59:08.693Z,40.83
2023-01-19T05:02:03.026Z,38.70
2023-01-19T05:04:30.181Z,42.85
2023-01-19T05:06:58.354Z,46.42
2023-01-19T05:09:26.087Z,40.90
2023-01-19T05:12:12.709Z,35.25
2023-01-19T05:15:14.686Z,33.67
2023-01-19T05:17:57.950Z,35.83
2023-01-19T05:20:44.684Z,38.88
2023-01-19T05:23:25.173Z,42.75
2023-01-19T05:25:51.999Z,43.47
2023-01-19T05:28:21.276Z,36.97
2023-01-19T05:30:50.322Z,48.08
2023-01-19T05:33:17.313Z,42.40
2023-01-19T05:35:44.252Z,52.22
2023-01-19T05:38:11.212Z,37.40
2023-01-19T05:40:38.460Z,43.05
2023-01-19T05:43:05.656Z,46.42
2023-01-19T05:45:32.955Z,51.25
2023-01-19T05:48:00.039Z,52.30
2023-01-19T05:50:26.885Z,45.45
2023-01-19T05:53:13.751Z,52.00
2023-01-19T05:55:59.506Z,45.58
2023-01-19T05:58:26.421Z,92.25
2023-01-19T06:00:53.529Z,59.28
2023-01-19T06:03:20.494Z,65.40
2023-01-19T06:05:47.632Z,57.83
2023-01-19T06:08:14.673Z,64.20
2023-01-19T06:10:41.724Z,56.45
2023-01-19T06:13:28.959Z,64.72
2023-01-19T06:16:29.821Z,63.65
2023-01-19T06:19:10.316Z,62.80
2023-01-19T06:21:37.314Z,43.88
2023-01-19T06:24:04.470Z,37.92
2023-01-19T06:26:31.414Z,31.67
2023-01-19T06:28:58.285Z,32.88
2023-01-19T06:31:25.287Z,25.35
2023-01-19T06:33:52.119Z,20.73
2023-01-19T06:36:19.034Z,22.38
2023-01-19T06:38:46.431Z,17.45
2023-01-19T06:41:13.416Z,18.77
2023-01-19T06:43:40.624Z,23.85
2023-01-19T06:46:07.802Z,42.70
2023-01-19T06:48:54.788Z,20.83
2023-01-19T06:51:55.796Z,19.40
2023-01-19T06:54:36.254Z,16.90
2023-01-19T06:57:04.071Z,16.83
2023-01-19T06:59:30.993Z,30.40
2023-01-19T07:01:58.079Z,16.73
2023-01-19T07:04:25.657Z,17.42
2023-01-19T07:06:52.619Z,25.13
2023-01-19T07:09:20.548Z,21.13
2023-01-19T07:12:08.730Z,21.27
2023-01-19T07:15:09.822Z,25.63
2023-01-19T07:17:57.294Z,19.25
2023-01-19T07:20:24.242Z,34.28
2023-01-19T07:22:57.449Z,19.05
2023-01-19T07:25:24.471Z,26.50
2023-01-19T07:27:51.477Z,24.65
2023-01-19T07:30:38.749Z,26.95
2023-01-19T07:33:19.500Z,20.33
2023-01-19T07:35:50.087Z,17.02
2023-01-19T07:38:18.853Z,16.65
2023-01-19T07:40:48.955Z,28.48
2023-01-19T07:43:16.232Z,22.88
2023-01-19T07:45:45.063Z,20.25
2023-01-19T07:48:12.032Z,19.13
2023-01-19T07:50:39.012Z,16.92
2023-01-19T07:53:07.955Z,14.57
2023-01-19T07:55:35.404Z,17.20
2023-01-19T07:58:06.620Z,17.90
2023-01-19T08:00:35.370Z,20.23
2023-01-19T08:03:04.204Z,19.70
2023-01-19T08:05:34.487Z,22.05
2023-01-19T08:08:01.299Z,20.35
2023-01-19T08:10:29.050Z,21.73
2023-01-19T08:13:15.764Z,17.15
2023-01-19T08:16:16.777Z,16.48
2023-01-19T08:18:57.351Z,15.77
2023-01-19T08:21:24.269Z,15.25
2023-01-19T08:23:55.438Z,21.30
2023-01-19T08:26:27.998Z,17.63
2023-01-19T08:28:55.637Z,21.95
2023-01-19T08:31:24.822Z,38.95
2023-01-19T08:33:52.290Z,24.65
2023-01-19T08:36:20.681Z,28.65
2023-01-19T08:38:47.951Z,31.83
2023-01-19T08:41:16.616Z,23.38
2023-01-19T08:43:45.544Z,28.10
2023-01-19T08:46:12.877Z,25.70
2023-01-19T08:48:40.151Z,22.73
2023-01-19T08:51:26.796Z,23.88
2023-01-19T08:54:28.833Z,19.30
2023-01-19T08:57:09.310Z,20.33
2023-01-19T08:59:56.795Z,12.27
2023-01-19T09:02:37.714Z,20.05
2023-01-19T09:05:04.998Z,19.05
2023-01-19T09:07:33.914Z,20.55
2023-01-19T09:10:04.616Z,16.55
2023-01-19T09:12:51.855Z,18.30
2023-01-19T09:15:52.851Z,13.60
2023-01-19T09:18:34.996Z,13.48
2023-01-19T09:21:02.616Z,14.27
2023-01-19T09:23:30.260Z,11.80
2023-01-19T09:26:02.089Z,13.60
2023-01-19T09:28:29.468Z,15.48
2023-01-19T09:31:23.030Z,14.98
2023-01-19T09:34:03.360Z,14.77
2023-01-19T09:36:30.326Z,10.85
2023-01-19T09:38:57.287Z,14.95
2023-01-19T09:41:26.144Z,15.10
2023-01-19T09:43:57.827Z,15.18
2023-01-19T09:46:38.853Z,15.95
2023-01-19T09:49:11.405Z,15.00
2023-01-19T09:51:43.797Z,17.00
2023-01-19T09:54:16.978Z,11.77
2023-01-19T09:56:45.924Z,11.27
2023-01-19T09:59:21.951Z,21.23
2023-01-19T10:02:08.859Z,10.60
2023-01-19T10:05:13.828Z,11.15
2023-01-19T10:08:22.663Z,8.32
2023-01-19T10:10:54.174Z,8.80
2023-01-19T10:14:01.832Z,9.52
2023-01-19T10:17:05.831Z,9.85
2023-01-19T10:19:53.787Z,8.80
2023-01-19T10:22:26.858Z,11.73
2023-01-19T10:24:57.294Z,9.90
2023-01-19T10:27:31.452Z,9.68
2023-01-19T10:29:59.196Z,8.40
2023-01-19T10:32:50.861Z,10.77
2023-01-19T10:35:31.490Z,7.72
2023-01-19T10:38:02.015Z,11.85
2023-01-19T10:40:35.147Z,7.30
2023-01-19T10:43:02.581Z,6.43
2023-01-19T10:45:31.545Z,5.93
2023-01-19T10:48:06.519Z,7.65
2023-01-19T10:50:37.241Z,5.32
2023-01-19T10:53:06.106Z,5.68
2023-01-19T10:55:38.269Z,10.52
2023-01-19T10:58:27.372Z,7.13
2023-01-19T11:00:54.624Z,5.90
2023-01-19T11:03:44.930Z,7.00
2023-01-19T11:06:46.855Z,7.57
2023-01-19T11:09:27.502Z,6.40
2023-01-19T11:12:14.876Z,7.03
2023-01-19T11:15:28.923Z,6.93
2023-01-19T11:18:24.770Z,12.55
2023-01-19T11:20:55.413Z,7.47
2023-01-19T11:23:29.563Z,5.80
2023-01-19T11:28:44.897Z,7.20
2023-01-19T11:31:15.123Z,5.05
2023-01-19T11:33:50.723Z,8.38
2023-01-19T11:36:25.254Z,8.43
2023-01-19T11:38:59.934Z,12.77
2023-01-19T11:41:35.932Z,8.32
2023-01-19T11:44:05.975Z,7.82
2023-01-19T11:46:35.313Z,12.93
2023-01-19T11:49:08.167Z,10.55
2023-01-19T11:51:50.850Z,9.23
2023-01-19T11:54:29.698Z,7.90
2023-01-19T11:57:00.179Z,10.48
2023-01-19T11:59:27.228Z,9.90
2023-01-19T12:02:00.536Z,7.97
2023-01-19T12:04:46.080Z,10.20
2023-01-19T12:07:49.892Z,10.75
2023-01-19T12:10:36.406Z,35.10
2023-01-19T12:13:42.891Z,9.57
2023-01-19T12:16:47.107Z,8.52
2023-01-19T12:19:50.812Z,8.93
2023-01-19T12:22:20.259Z,100.47
2023-01-19T12:25:05.669Z,8.93
2023-01-19T12:27:46.805Z,12.43
2023-01-19T12:30:21.546Z,12.73
2023-01-19T12:32:49.029Z,126.57
2023-01-19T12:35:53.565Z,16.63
2023-01-19T12:38:46.861Z,17.00
2023-01-19T12:41:18.641Z,12.48
2023-01-19T12:43:46.626Z,9.90
2023-01-19T12:46:45.006Z,12.38
2023-01-19T12:49:40.581Z,15.93
2023-01-19T12:52:40.885Z,11.43
2023-01-19T12:55:52.930Z,12.00
2023-01-19T12:59:01.915Z,14.48
2023-01-19T13:01:33.210Z,12.32
2023-01-19T13:04:46.900Z,12.98
2023-01-19T13:07:27.466Z,11.13
2023-01-19T13:09:54.425Z,13.90
2023-01-19T13:12:41.998Z,10.60
2023-01-19T13:15:49.962Z,8.75
2023-01-19T13:18:35.127Z,8.80
2023-01-19T13:21:05.989Z,9.77
2023-01-19T13:23:54.226Z,8.52
2023-01-19T13:26:23.510Z,16.95
2023-01-19T13:28:57.318Z,14.23
2023-01-19T13:31:35.244Z,8.18
2023-01-19T13:34:04.339Z,10.20
2023-01-19T13:36:35.007Z,8.27
2023-01-19T13:39:05.591Z,7.57
2023-01-19T13:41:55.116Z,9.57
2023-01-19T13:45:01.114Z,8.05
2023-01-19T13:48:02.952Z,9.00
2023-01-19T13:51:00.719Z,12.38
2023-01-19T13:56:50.024Z,8.38
2023-01-19T13:59:30.681Z,11.63
2023-01-19T14:02:10.699Z,10.75
2023-01-19T14:04:37.662Z,12.77
2023-01-19T14:07:12.547Z,22.60
2023-01-19T14:09:59.981Z,13.77
2023-01-19T14:13:11.999Z,12.88
2023-01-19T14:15:55.553Z,11.65
2023-01-19T14:18:25.469Z,15.05
2023-01-19T14:21:15.332Z,11.10
2023-01-19T14:23:48.703Z,14.20
2023-01-19T14:26:46.574Z,11.48
2023-01-19T14:29:19.722Z,11.90
2023-01-19T14:31:50.125Z,9.25
2023-01-19T14:34:35.434Z,9.90
2023-01-19T14:37:04.349Z,11.05
2023-01-19T14:39:50.972Z,14.60
2023-01-19T14:43:02.970Z,14.10
2023-01-19T14:45:47.423Z,13.10
2023-01-19T14:48:37.947Z,14.30
2023-01-19T14:51:21.912Z,13.03
2023-01-19T14:54:10.966Z,13.50
2023-01-19T14:57:00.101Z,10.75
2023-01-19T14:59:47.068Z,10.88
2023-01-19T15:02:27.840Z,10.43
2023-01-19T15:04:57.795Z,13.68
2023-01-19T15:07:25.313Z,13.82
2023-01-19T15:09:52.648Z,11.85
2023-01-19T15:12:42.992Z,12.32
2023-01-19T15:15:32.908Z,12.13
2023-01-19T15:18:04.900Z,13.68
2023-01-19T15:20:31.806Z,17.60
2023-01-19T15:22:58.712Z,13.45
2023-01-19T15:25:30.440Z,22.80
2023-01-19T15:28:17.982Z,18.65
2023-01-19T15:31:00.123Z,12.63
2023-01-19T15:33:32.053Z,16.27
2023-01-19T15:35:59.207Z,15.02
2023-01-19T15:38:26.663Z,14.32
2023-01-19T15:40:53.825Z,13.88
2023-01-19T15:43:41.026Z,15.27
2023-01-19T15:46:42.133Z,14.95
2023-01-19T15:49:43.037Z,13.88
2023-01-19T15:52:44.108Z,17.50
2023-01-19T15:55:45.010Z,25.70
2023-01-19T15:58:25.640Z,19.45
2023-01-19T16:00:57.767Z,16.65
2023-01-19T16:03:27.945Z,20.25
2023-01-19T16:05:54.788Z,26.75
2023-01-19T16:08:22.166Z,18.75
2023-01-19T16:11:09.020Z,18.52
2023-01-19T16:14:09.987Z,18.27
2023-01-19T16:16:50.502Z,22.27
2023-01-19T16:19:19.199Z,15.95
2023-01-19T16:21:46.241Z,20.38
2023-01-19T16:24:13.143Z,18.80
2023-01-19T16:27:00.024Z,21.27
2023-01-19T16:30:01.020Z,21.48
2023-01-19T16:33:02.116Z,26.33
2023-01-19T16:35:32.475Z,21.85
2023-01-19T16:38:19.120Z,22.40
2023-01-19T16:41:23.046Z,21.08
2023-01-19T16:44:20.869Z,22.77
2023-01-19T16:46:49.846Z,17.73
2023-01-19T16:49:22.328Z,21.60
2023-01-19T16:51:50.526Z,27.02
2023-01-19T16:54:40.115Z,31.55
2023-01-19T16:57:41.018Z,22.67
2023-01-19T17:00:42.084Z,23.95
2023-01-19T17:03:22.597Z,198.65
2023-01-19T17:05:50.956Z,84.95
2023-01-19T17:08:19.806Z,36.85
2023-01-19T17:10:47.830Z,27.30
2023-01-19T17:13:35.045Z,26.20
2023-01-19T17:16:37.123Z,75.55
2023-01-19T17:19:20.420Z,43.67
2023-01-19T17:21:49.078Z,34.80
2023-01-19T17:24:16.397Z,35.55
2023-01-19T17:26:46.033Z,29.77
2023-01-19T17:29:13.014Z,131.50
2023-01-19T17:31:40.017Z,23.83
2023-01-19T17:34:08.070Z,39.70
2023-01-19T17:36:55.105Z,43.55
2023-01-19T17:39:35.550Z,61.05
2023-01-19T17:42:23.070Z,84.95
2023-01-19T17:45:03.918Z,79.43
2023-01-19T17:47:52.050Z,59.50
2023-01-19T17:50:34.636Z,38.75
2023-01-19T17:53:01.752Z,47.50
2023-01-19T17:55:28.768Z,60.17
2023-01-19T17:58:16.029Z,53.85
2023-01-19T18:01:45.141Z,53.47
2023-01-19T18:04:42.112Z,39.22
2023-01-19T18:07:09.118Z,37.35
2023-01-19T18:09:36.134Z,36.20
2023-01-19T18:12:23.089Z,36.85
2023-01-19T18:15:24.080Z,21.17
2023-01-19T18:18:04.902Z,22.30
2023-01-19T18:20:32.332Z,24.42
2023-01-19T18:22:59.448Z,26.95
2023-01-19T18:25:26.252Z,23.38
2023-01-19T18:28:13.061Z,20.15
2023-01-19T18:30:53.914Z,17.05
2023-01-19T18:33:21.064Z,17.98
2023-01-19T18:35:48.109Z,20.10
2023-01-19T18:38:15.497Z,25.33
2023-01-19T18:41:02.077Z,38.08
2023-01-19T18:44:03.058Z,29.02
2023-01-19T18:47:02.680Z,30.40
2023-01-19T18:49:29.499Z,25.80
2023-01-19T18:51:56.581Z,36.08
2023-01-19T18:54:23.522Z,24.80
2023-01-19T18:56:50.910Z,23.27
2023-01-19T18:59:18.175Z,21.92
2023-01-19T19:01:45.289Z,23.02
2023-01-19T19:04:12.658Z,18.70
2023-01-19T19:06:39.822Z,17.98
2023-01-19T19:09:06.782Z,24.05
2023-01-19T19:11:54.139Z,19.00
2023-01-19T19:14:55.133Z,18.48
2023-01-19T19:17:49.225Z,17.40
2023-01-19T19:20:20.676Z,16.80
2023-01-19T19:22:47.582Z,15.93
2023-01-19T19:25:14.660Z,15.65
2023-01-19T19:27:45.307Z,23.95
2023-01-19T19:30:13.707Z,16.85
2023-01-19T19:32:40.806Z,13.57
2023-01-19T19:35:08.011Z,13.43
2023-01-19T19:41:05.114Z,15.57
2023-01-19T19:43:45.888Z,18.05
2023-01-19T19:46:35.244Z,17.38
2023-01-19T19:49:36.156Z,18.92
2023-01-19T19:52:16.742Z,16.10
2023-01-19T19:54:45.165Z,34.20
2023-01-19T19:57:12.189Z,20.35
2023-01-19T19:59:39.334Z,19.02
2023-01-19T20:02:06.281Z,21.40
2023-01-19T20:04:33.288Z,23.90
2023-01-19T20:07:00.374Z,20.35
2023-01-19T20:09:27.378Z,24.75
2023-01-19T20:12:14.171Z,22.75
2023-01-19T20:14:54.707Z,22.98
2023-01-19T20:17:42.234Z,27.65
2023-01-19T20:20:43.158Z,21.27
2023-01-19T20:23:23.763Z,27.70
2023-01-19T20:25:50.870Z,28.05
2023-01-19T20:28:18.448Z,27.20
2023-01-19T20:30:45.438Z,25.38
2023-01-19T20:33:12.571Z,30.80
2023-01-19T20:35:39.547Z,28.52
2023-01-19T20:38:06.942Z,30.23
2023-01-19T20:40:54.133Z,30.00
2023-01-19T20:43:55.160Z,24.95
2023-01-19T20:46:56.149Z,32.92
2023-01-19T20:49:37.232Z,34.03
2023-01-19T20:52:04.487Z,33.17
2023-01-19T20:54:31.633Z,29.38
2023-01-19T20:56:59.851Z,33.33
2023-01-19T20:59:27.254Z,33.50
2023-01-19T21:01:54.781Z,31.30
2023-01-19T21:04:22.552Z,30.35
2023-01-19T21:06:49.509Z,33.55
2023-01-19T21:09:18.738Z,34.83
2023-01-19T21:12:06.194Z,31.90
2023-01-19T21:14:46.780Z,26.98
2023-01-19T21:17:13.992Z,30.40
2023-01-19T21:19:41.578Z,30.17
2023-01-19T21:22:08.640Z,31.65
2023-01-19T21:24:35.693Z,28.20
2023-01-19T21:27:02.869Z,27.35
2023-01-19T21:29:29.935Z,32.50
2023-01-19T21:32:17.192Z,28.50
2023-01-19T21:35:18.184Z,31.67
2023-01-19T21:37:58.720Z,28.80
2023-01-19T21:40:25.725Z,35.42
2023-01-19T21:43:13.163Z,27.92
2023-01-19T21:45:54.064Z,27.55
2023-01-19T21:48:21.084Z,28.90
2023-01-19T21:50:57.177Z,26.15
2023-01-19T21:53:24.166Z,31.77
2023-01-19T21:55:51.145Z,33.30
2023-01-19T21:58:18.031Z,28.00
2023-01-19T22:00:45.464Z,24.98
2023-01-19T22:03:12.494Z,28.63
2023-01-19T22:05:39.439Z,25.20
2023-01-19T22:08:06.577Z,25.67
2023-01-19T22:10:39.644Z,27.40
2023-01-19T22:13:26.208Z,24.25
2023-01-19T22:16:10.333Z,28.23
2023-01-19T22:18:41.727Z,28.10
2023-01-19T22:21:15.021Z,25.25
2023-01-19T22:23:43.429Z,33.05
2023-01-19T22:26:11.655Z,27.70
2023-01-19T22:28:59.200Z,33.13
2023-01-19T22:32:00.479Z,34.20
2023-01-19T22:34:40.699Z,28.75
2023-01-19T22:37:07.795Z,24.48
2023-01-19T22:39:35.377Z,25.08
2023-01-19T22:42:22.184Z,24.38
2023-01-19T22:45:23.190Z,27.65
2023-01-19T22:48:04.022Z,28.02
2023-01-19T22:50:30.969Z,27.67
2023-01-19T22:52:58.537Z,23.63
2023-01-19T22:55:25.457Z,27.30
2023-01-19T22:57:52.364Z,32.22
2023-01-19T23:00:19.894Z,33.35
2023-01-19T23:02:46.797Z,26.98
2023-01-19T23:05:14.171Z,30.60
2023-01-19T23:07:41.356Z,32.35
2023-01-19T23:10:09.097Z,32.85
2023-01-19T23:12:56.224Z,32.17
2023-01-19T23:15:36.863Z,29.13
2023-01-19T23:18:03.916Z,34.53
2023-01-19T23:20:30.789Z,33.17
2023-01-19T23:23:18.294Z,26.42
2023-01-19T23:26:02.110Z,30.55
2023-01-19T23:28:29.121Z,30.48
2023-01-19T23:31:36.285Z,38.03
2023-01-19T23:34:17.435Z,31.00
2023-01-19T23:36:45.162Z,33.15
2023-01-19T23:39:20.881Z,35.20
2023-01-19T23:42:10.258Z,33.67
2023-01-19T23:45:11.482Z,37.20
2023-01-19T23:47:53.052Z,38.08
2023-01-19T23:50:20.120Z,38.55
2023-01-19T23:52:47.096Z,35.10
2023-01-19T23:55:14.349Z,37.13
2023-01-19T23:57:41.529Z,36.63
